Flight Track Log - Related Links

Times and Time Zones

All times are in EDT time to prevent confusion due to time zone crossing. See the N744N flight status page for this flight to view local times or setup timezone preferences in your user account.

Time Position Orientation Groundspeed Altitude Reporting Facility
EDT Latitude Longitude Course Direction KTS MPH feet Rate Location/Type
Fri 12:33:54 PM 40.8900 -98.3383 199° South 237 273 5,200  Level Denver Center
Fri 12:34:56 PM 40.8703 -98.4275 254° West 249 287 7,900 2,390 Climbing Denver Center
Fri 12:35:57 PM 40.8561 -98.5058 257° West 265 305 10,100 2,516 Climbing Denver Center
Fri 12:37:00 PM 40.7181 -99.2686 250° West  Level FlightAware Approximate
Fri 12:37:00 PM 40.8250 -98.6297 252° West 289 333 13,100  Level Denver Center
Fri 12:38:00 PM 40.6851 -99.4079 255° West  Level FlightAware Approximate
Fri 12:38:02 PM 40.7986 -98.7378 252° West 303 349 15,700  Level Denver Center
Fri 12:39:04 PM 40.7697 -98.8569 252° West 311 358 18,300 2,129 Climbing Denver Center
Fri 12:40:06 PM 40.7461 -98.9600 253° West 316 364 20,100 1,694 Climbing Denver Center
Fri 12:41:08 PM 40.7175 -99.0792 252° West 333 383 21,800 1,935 Climbing Denver Center
Fri 12:42:10 PM 40.6808 -99.2275 252° West 350 403 24,100 1,984 Climbing Denver Center
Fri 12:43:12 PM 40.6511 -99.3522 253° West 355 409 25,900 1,548 Climbing Denver Center
Fri 12:44:14 PM 40.6189 -99.4794 252° West 364 419 27,300 1,258 Climbing Denver Center
Fri 12:45:16 PM 40.5872 -99.6111 252° West 375 432 28,500 1,113 Climbing Denver Center
Fri 12:46:18 PM 40.5539 -99.7464 252° West 387 445 29,600 912 Climbing Denver Center
Fri 12:47:21 PM 40.5133 -99.9097 252° West 401 461 30,400 1,152 Climbing Denver Center
Fri 12:48:23 PM 40.4778 -100.0483 251° West 413 475 32,000 1,452 Climbing Denver Center
Fri 12:49:25 PM 40.4372 -100.2044 251° West 405 466 33,400 968 Climbing Denver Center
Fri 12:50:27 PM 40.4036 -100.3378 252° West 402 463 34,000 290 Climbing Denver Center
Fri 12:51:29 PM 40.3678 -100.4806 252° West 421 484 34,000  Level Denver Center
Fri 12:52:31 PM 40.3044 -100.6383 242° Southwest 438 504 34,000  Level Denver Center
Fri 12:53:33 PM 40.2378 -100.7653 236° Southwest 440 506 34,000  Level Denver Center
Fri 12:54:35 PM 40.1619 -100.9150 236° Southwest 441 507 34,000  Level Denver Center
Fri 12:55:37 PM 40.0981 -101.0444 237° Southwest 441 507 34,000  Level Denver Center
Fri 12:56:39 PM 40.0322 -101.2031 242° Southwest 446 513 34,000  Level Denver Center
Fri 12:57:41 PM 39.9981 -101.3483 253° West 438 504 34,000  Level Denver Center
Fri 12:58:43 PM 39.9569 -101.5169 252° West 436 502 34,000  Level Denver Center
Fri 12:59:45 PM 39.9200 -101.6592 251° West 433 498 34,000 435 Level Denver Center
Fri 01:00:47 PM 39.8858 -101.8008 253° West 430 495 34,900 1,210 Climbing Denver Center
Fri 01:01:49 PM 39.8439 -101.9589 251° West 415 478 36,500 1,355 Climbing Denver Center
Fri 01:02:51 PM 39.8108 -102.0928 252° West 406 467 37,700 1,258 Climbing Denver Center
Fri 01:03:53 PM 39.7717 -102.2439 251° West 396 456 39,100 1,113 Climbing Denver Center
Fri 01:04:55 PM 39.7392 -102.3711 252° West 389 448 40,000 435 Climbing Denver Center
Fri 01:05:57 PM 39.6989 -102.5250 251° West 403 464 40,000  Level Denver Center
Fri 01:07:00 PM 39.6631 -102.6611 251° West 414 476 40,000  Level Denver Center
Fri 01:08:02 PM 39.6228 -102.8147 251° West 425 489 40,000  Level Denver Center
Fri 01:09:04 PM 39.5842 -102.9597 251° West 428 493 40,000  Level Denver Center
Fri 01:10:06 PM 39.5458 -103.1053 251° West 427 491 40,000  Level Denver Center
Fri 01:11:08 PM 39.5067 -103.2506 251° West 428 493 40,000  Level Denver Center
Fri 01:12:10 PM 39.4606 -103.4208 251° West 421 484 40,000  Level Denver Center
Fri 01:13:12 PM 39.4222 -103.5622 251° West 417 480 40,000  Level Denver Center
Fri 01:14:14 PM 39.3850 -103.7019 251° West 413 475 40,000  Level Denver Center
Fri 01:15:16 PM 39.3464 -103.8406 250° West 410 472 40,000  Level Denver Center
Fri 01:16:18 PM 39.3089 -103.9800 251° West 411 473 40,000  Level Denver Center
Fri 01:17:20 PM 39.2703 -104.1192 250° West 410 472 40,000  Level Denver Center
Fri 01:18:22 PM 39.2242 -104.2828 250° West 404 465 40,000  Level Denver Center
Fri 01:19:24 PM 39.1861 -104.4208 250° West 405 466 40,000  Level Denver Center
Fri 01:20:26 PM 39.1475 -104.5564 250° West 401 461 40,000  Level Denver Center
Fri 01:21:29 PM 39.1086 -104.6944 250° West 406 467 40,000  Level Denver Center
Fri 01:22:31 PM 39.0700 -104.8317 250° West 405 466 40,000  Level Denver Center
Fri 01:23:32 PM 39.0386 -104.9417 250° West 406 467 40,000  Level Denver Center
Fri 01:24:35 PM 38.9914 -105.1064 250° West 408 470 40,000  Level Denver Center
Fri 01:25:37 PM 38.9439 -105.2703 250° West 408 470 40,000  Level Denver Center
Fri 01:26:39 PM 38.9047 -105.4056 250° West 405 466 40,000  Level Denver Center
Fri 01:27:41 PM 38.8656 -105.5403 250° West 403 464 40,000  Level Denver Center
Fri 01:28:42 PM 38.8331 -105.6492 249° West 407 468 40,000  Level Denver Center
Fri 01:29:45 PM 38.7856 -105.8111 249° West 405 466 40,000  Level Denver Center
Fri 01:30:47 PM 38.7458 -105.9456 249° West 405 466 40,000  Level Denver Center
Fri 01:31:49 PM 38.7053 -106.0808 249° West 406 467 40,000 194 Level Denver Center
Fri 01:32:51 PM 38.6567 -106.2408 249° West 404 465 40,400 581 Climbing Denver Center
Fri 01:33:53 PM 38.6178 -106.3714 249° West 397 457 41,200 726 Climbing Denver Center
Fri 01:34:55 PM 38.5786 -106.4994 249° West 387 445 41,900 726 Climbing Denver Center
Fri 01:35:57 PM 38.5394 -106.6272 249° West 385 443 42,700 528 Climbing Denver Center
Fri 01:37:00 PM 38.5003 -106.7544 249° West 382 440 43,000 144 Climbing Denver Center
Fri 01:38:02 PM 38.4603 -106.8853 249° West 391 450 43,000  Level Denver Center
Fri 01:39:04 PM 38.4192 -107.0186 249° West 402 463 43,000  Level Denver Center
Fri 01:40:06 PM 38.3689 -107.1819 249° West 410 472 43,000  Level Denver Center
Fri 01:41:08 PM 38.3306 -107.3047 248° West 411 473 43,000  Level Denver Center
Fri 01:42:10 PM 38.2828 -107.4564 248° West 413 475 43,000  Level Denver Center
Fri 01:43:12 PM 38.2433 -107.5872 249° West 413 475 43,000  Level Denver Center
Fri 01:44:14 PM 38.2086 -107.7436 254° West 412 474 43,000  Level Denver Center
Fri 01:45:16 PM 38.1778 -107.8800 254° West 417 480 43,000  Level Denver Center
Fri 01:46:18 PM 38.1425 -108.0375 254° West 416 479 43,000  Level Denver Center
Fri 01:47:20 PM 38.1103 -108.1725 253° West 413 475 43,000  Level Denver Center
Fri 01:48:22 PM 38.0739 -108.3325 254° West 419 482 43,000  Level Denver Center
Fri 01:49:24 PM 38.0503 -108.4428 255° West 413 475 43,000  Level Denver Center
Fri 01:50:26 PM 38.0083 -108.6200 253° West 410 472 43,000  Level Denver Center
Fri 01:51:28 PM 37.9767 -108.7556 254° West 414 476 43,000  Level Denver Center
Fri 01:52:31 PM 37.9397 -108.9097 253° West 414 476 43,000  Level Denver Center
Fri 01:53:33 PM 37.9075 -109.0458 253° West 420 483 43,000  Level Denver Center
Fri 01:54:35 PM 37.8697 -109.2017 253° West 416 479 43,000  Level Denver Center
Fri 01:55:49 PM 37.8328 -109.3561 253° West 414 476 43,000  Level Denver Center
Fri 01:56:51 PM 37.7944 -109.5114 253° West 413 475 43,000 -48 Level Denver Center
Fri 01:57:53 PM 37.7625 -109.6447 253° West 413 475 42,900 -532 Descending Denver Center
Fri 01:58:55 PM 37.7244 -109.7992 253° West 415 478 41,900 -1,113 Descending Denver Center
Fri 01:59:57 PM 37.6911 -109.9358 253° West 423 487 40,600 -1,452 Descending Denver Center
Fri 02:00:59 PM 37.6503 -110.0972 252° West 431 496 38,900 -1,488 Descending Denver Center
Fri 02:02:02 PM 37.6156 -110.2369 253° West 437 503 37,500 -1,344 Descending Denver Center
Fri 02:03:04 PM 37.5750 -110.3983 252° West 435 501 36,100 -726 Descending Denver Center
Fri 02:04:06 PM 37.5406 -110.5383 253° West 433 498 36,000 -48 Descending Denver Center
Fri 02:05:08 PM 37.5031 -110.6817 252° West 431 496 36,000 -97 Level Denver Center
Fri 02:06:10 PM 37.4661 -110.8244 252° West 430 495 35,800 -532 Descending Denver Center
Fri 02:07:12 PM 37.4292 -110.9689 252° West 434 499 34,900 -968 Descending Denver Center
Fri 02:08:14 PM 37.3831 -111.1444 252° West 439 505 33,800 -968 Descending Denver Center
Fri 02:09:16 PM 37.3450 -111.2900 252° West 440 506 32,900 -823 Descending Denver Center
Fri 02:10:18 PM 37.3069 -111.4361 252° West 440 506 32,100 -435 Descending Denver Center
Fri 02:11:20 PM 37.2683 -111.5850 252° West 445 512 32,000 -48 Descending Denver Center
Fri 02:12:22 PM 37.2297 -111.7325 252° West 445 512 32,000  Level Denver Center
Fri 02:13:24 PM 37.1919 -111.8803 252° West 444 511 32,000  Level Denver Center
Fri 02:14:09 PM 37.1572 -111.9989 250° West 450 518 32,000  Level Los Angeles Center
Fri 02:15:11 PM 37.1161 -112.1483 251° West 452 520 32,000  Level Los Angeles Center
Fri 02:16:13 PM 37.0764 -112.2967 251° West 450 518 32,000  Level Los Angeles Center
Fri 02:17:15 PM 37.0275 -112.4747 251° West 449 517 32,000  Level Los Angeles Center
Fri 02:18:17 PM 36.9872 -112.6244 251° West 451 519 32,000 -290 Level Los Angeles Center
Fri 02:19:19 PM 36.9456 -112.7750 251° West 455 524 31,400 -1,008 Descending Los Angeles Center
Fri 02:20:22 PM 36.9033 -112.9258 251° West 457 526 29,900 -1,440 Descending Los Angeles Center
Fri 02:21:24 PM 36.8619 -113.0733 251° West 450 518 28,400 -1,306 Descending Los Angeles Center
Fri 02:22:26 PM 36.8203 -113.2203 251° West 450 518 27,200 -1,258 Descending Los Angeles Center
Fri 02:23:28 PM 36.7767 -113.3647 249° West 446 513 25,800 -1,452 Descending Los Angeles Center
Fri 02:24:30 PM 36.7192 -113.5283 246° West 434 499 24,200 -1,500 Descending Los Angeles Center
Fri 02:25:32 PM 36.6733 -113.6631 247° West 425 489 22,700 -1,065 Descending Los Angeles Center
Fri 02:26:34 PM 36.6308 -113.7969 248° West 418 481 22,000 -677 Descending Los Angeles Center
Fri 02:27:36 PM 36.5847 -113.9283 246° West 415 478 21,300 -1,306 Descending Los Angeles Center
Fri 02:28:38 PM 36.5428 -114.0519 247° West 392 451 19,300 -1,920 Descending Los Angeles Center
Fri 02:29:41 PM 36.5003 -114.1731 246° West 357 411 17,300 -1,824 Descending Los Angeles Center
Fri 02:30:43 PM 36.4647 -114.2772 247° West 332 382 15,500 -1,742 Descending Los Angeles Center
Fri 02:31:45 PM 36.4317 -114.3722 247° West 303 349 13,700 -1,892 Descending Los Angeles Center
Fri 02:32:53 PM 36.3869 -114.4878 244° Southwest 291 335 11,400 -1,887 Descending Los Angeles Center
Fri 02:33:49 PM 36.3525 -114.5686 242° Southwest 290 334 9,800 -1,678 Descending Los Angeles Center
Fri 02:34:51 PM 36.3169 -114.6550 243° Southwest 284 327 8,100 -1,210 Descending Los Angeles Center
Fri 02:35:53 PM 36.2867 -114.7406 246° West 273 314 7,300 -532 Descending Los Angeles Center
Fri 02:36:55 PM 36.2442 -114.8219 237° Southwest 278 320 7,000 -288 Descending Los Angeles Center
Fri 02:37:58 PM 36.1908 -114.9117 234° Southwest 284 327 6,700 -878 Descending Los Angeles Center
Fri 02:38:58 PM 36.1503 -114.9839 235° Southwest 254 292 5,200 -1,190 Descending Los Angeles Center
Fri 02:39:54 PM 36.1428 -115.0478 262° West 202 232 4,400 -1,086 Descending Los Angeles Center
Fri 02:40:54 PM 36.1364 -115.1083 263° West 160 184 3,100 -909 Descending Los Angeles Center
Fri 02:42:06 PM 36.1114 -115.1486 232° Southwest 159 183 2,400 -583 Descending Los Angeles Center
Fri 02:44:00 PM 36.0801 -115.1523 North  Level Estimated

Login

Don't have an account? Register now (free) for customized features, flight alerts, and more!